Time;durP1;ratioP1;P1;durP2;ratioP2;P2;SDS_P1;SDS_P2;PMS_P1;PMS_P2;Temp;Humidity;BMP_temperature;BMP_pressure;BME280_temperature;BME280_humidity;BME280_pressure;Samples;Min_cycle;Max_cycle;Signal;HPM_P1;HPM_P2
2023/01/07 00:04:44;;;;;;;2.20;1.40;;;10.50;99.90;;;;;;10475081;28;20216;-72
2023/01/07 00:09:44;;;;;;;2.20;1.30;;;10.50;99.90;;;;;;10459605;28;20215;-72
2023/01/07 00:14:45;;;;;;;2.27;1.67;;;10.50;99.90;;;;;;10480413;28;20225;-72
2023/01/07 00:19:47;;;;;;;2.50;1.27;;;10.50;99.90;;;;;;10472269;28;20215;-72
2023/01/07 00:24:48;;;;;;;1.20;1.10;;;10.50;99.90;;;;;;10476740;28;20226;-71
2023/01/07 00:29:48;;;;;;;2.30;1.30;;;10.60;99.90;;;;;;10459589;28;20233;-70
2023/01/07 00:34:49;;;;;;;2.47;1.30;;;10.60;99.90;;;;;;10469931;28;20222;-73
2023/01/07 00:39:49;;;;;;;1.87;1.50;;;10.50;99.90;;;;;;10475916;28;20249;-72
2023/01/07 00:44:50;;;;;;;3.60;1.60;;;10.50;99.90;;;;;;10478384;28;20233;-70
2023/01/07 00:49:50;;;;;;;3.87;1.50;;;10.50;99.90;;;;;;10471148;28;20749;-71
2023/01/07 00:54:51;;;;;;;1.43;1.23;;;10.50;99.90;;;;;;10467165;28;20220;-71
2023/01/07 00:59:51;;;;;;;2.53;1.63;;;10.50;99.90;;;;;;10451010;28;20221;-71
2023/01/07 01:04:52;;;;;;;2.17;1.43;;;10.50;99.90;;;;;;10457618;28;20590;-72
2023/01/07 01:09:52;;;;;;;2.00;1.60;;;10.50;99.90;;;;;;10480161;28;20206;-72
2023/01/07 01:14:53;;;;;;;1.60;1.50;;;10.50;99.90;;;;;;10502319;28;20218;-72
2023/01/07 01:19:54;;;;;;;2.00;1.90;;;10.50;99.90;;;;;;10467034;28;20313;-73
2023/01/07 01:24:54;;;;;;;1.77;1.40;;;10.40;99.90;;;;;;10476636;28;20229;-74
2023/01/07 01:29:58;;;;;;;3.43;1.90;;;10.40;99.90;;;;;;10467717;28;20219;-72
2023/01/07 01:34:59;;;;;;;2.00;1.80;;;10.30;99.90;;;;;;10449828;28;20223;-71
2023/01/07 01:40:02;;;;;;;2.33;2.13;;;10.40;99.90;;;;;;10488815;28;20219;-70
2023/01/07 01:45:04;;;;;;;3.23;2.10;;;10.40;99.90;;;;;;10483315;28;20632;-72
2023/01/07 01:50:14;;;;;;;2.87;2.00;;;10.40;99.90;;;;;;10466460;28;20223;-71
2023/01/07 01:55:20;;;;;;;2.50;1.83;;;10.30;99.90;;;;;;10477076;28;20202;-71
2023/01/07 02:00:21;;;;;;;2.13;1.80;;;10.40;99.90;;;;;;10456607;28;20183;-71
2023/01/07 02:05:27;;;;;;;4.67;2.10;;;10.40;99.90;;;;;;10453676;28;20204;-71
2023/01/07 02:10:30;;;;;;;4.03;2.00;;;10.40;99.90;;;;;;10470948;28;20231;-72
2023/01/07 02:15:54;;;;;;;4.10;2.23;;;10.40;99.90;;;;;;10452356;28;20442;-71
2023/01/07 02:21:19;;;;;;;4.60;2.07;;;10.40;99.90;;;;;;10473870;28;20212;-72
2023/01/07 02:26:57;;;;;;;2.23;2.03;;;10.40;99.90;;;;;;10465728;28;20243;-70
2023/01/07 02:32:28;;;;;;;4.30;2.23;;;10.40;99.90;;;;;;10468921;28;20581;-70
2023/01/07 02:38:10;;;;;;;4.40;2.50;;;10.40;99.90;;;;;;10466367;28;20272;-72
2023/01/07 02:43:32;;;;;;;4.40;2.40;;;10.40;99.90;;;;;;10467341;28;20222;-71
2023/01/07 02:48:34;;;;;;;2.97;2.30;;;10.30;99.90;;;;;;10472135;28;20210;-70
2023/01/07 02:53:35;;;;;;;2.40;2.03;;;10.40;99.90;;;;;;10473685;28;20275;-71
2023/01/07 02:58:52;;;;;;;3.30;2.40;;;10.40;99.90;;;;;;10468526;28;20269;-71
2023/01/07 03:04:08;;;;;;;6.63;2.33;;;10.40;99.90;;;;;;10455950;28;20784;-73
2023/01/07 03:09:30;;;;;;;3.73;2.27;;;10.40;99.90;;;;;;10461049;28;20249;-72
2023/01/07 03:14:43;;;;;;;3.47;2.20;;;10.40;99.90;;;;;;10482637;28;20686;-72
2023/01/07 03:19:53;;;;;;;2.20;2.00;;;10.40;99.90;;;;;;10464633;28;20573;-71
2023/01/07 03:24:56;;;;;;;2.27;1.90;;;10.40;99.90;;;;;;10455986;28;20223;-71
2023/01/07 03:29:59;;;;;;;2.80;2.13;;;10.40;99.90;;;;;;10480307;28;20214;-71
2023/01/07 03:34:59;;;;;;;2.57;1.70;;;10.40;99.90;;;;;;10463104;28;20226;-71
2023/01/07 03:40:05;;;;;;;2.03;1.80;;;10.40;99.90;;;;;;10478056;28;20691;-70
2023/01/07 03:45:13;;;;;;;1.70;1.60;;;10.40;99.90;;;;;;10479311;28;20291;-69
2023/01/07 03:50:15;;;;;;;2.97;1.60;;;10.40;99.90;;;;;;10472756;28;20218;-72
2023/01/07 03:55:16;;;;;;;1.93;1.50;;;10.40;99.90;;;;;;10464780;28;20574;-71
2023/01/07 04:00:16;;;;;;;3.57;1.93;;;10.50;99.90;;;;;;10474070;28;20198;-71
2023/01/07 04:05:20;;;;;;;3.30;1.40;;;10.50;99.90;;;;;;10476170;28;20219;-70
2023/01/07 04:10:21;;;;;;;1.60;1.50;;;10.50;99.90;;;;;;10474018;28;20182;-70
2023/01/07 04:15:21;;;;;;;2.93;1.33;;;10.50;99.90;;;;;;10475602;28;20186;-71
2023/01/07 04:20:22;;;;;;;2.70;1.43;;;10.50;99.90;;;;;;10473736;28;20206;-69
2023/01/07 04:25:22;;;;;;;1.87;1.20;;;10.50;99.90;;;;;;10458822;28;20669;-69
2023/01/07 04:30:23;;;;;;;1.90;1.20;;;10.50;99.90;;;;;;10463968;28;20206;-70
2023/01/07 04:35:23;;;;;;;1.60;1.50;;;10.50;99.90;;;;;;10474886;28;20346;-71
2023/01/07 04:40:25;;;;;;;3.23;1.40;;;10.50;99.90;;;;;;10459664;28;20693;-71
2023/01/07 04:45:25;;;;;;;1.90;1.40;;;10.50;99.90;;;;;;10473659;28;20292;-70
2023/01/07 04:50:27;;;;;;;1.70;1.50;;;10.50;99.90;;;;;;10473503;28;20219;-69
2023/01/07 04:55:27;;;;;;;1.37;1.27;;;10.50;99.90;;;;;;10472877;28;20309;-69
2023/01/07 05:00:28;;;;;;;2.87;1.43;;;10.50;99.90;;;;;;10480694;28;20322;-69
2023/01/07 05:05:28;;;;;;;2.10;1.57;;;10.50;99.90;;;;;;10472507;28;20775;-68
2023/01/07 05:10:29;;;;;;;1.67;1.47;;;10.50;99.90;;;;;;10471189;28;20216;-69
2023/01/07 05:15:30;;;;;;;1.53;1.30;;;10.50;99.90;;;;;;10480576;28;20292;-71
2023/01/07 05:20:30;;;;;;;2.83;1.70;;;10.50;99.90;;;;;;10482542;28;20221;-70
2023/01/07 05:25:33;;;;;;;2.33;1.40;;;10.50;99.90;;;;;;10488562;28;20224;-70
2023/01/07 05:30:38;;;;;;;2.67;1.90;;;10.50;99.90;;;;;;10478962;28;20380;-71
2023/01/07 05:35:38;;;;;;;4.00;1.53;;;10.50;99.90;;;;;;10469572;28;20216;-71
2023/01/07 05:40:41;;;;;;;1.50;1.40;;;10.50;99.90;;;;;;10473099;28;20697;-69
2023/01/07 05:45:45;;;;;;;7.10;3.63;;;10.50;99.90;;;;;;10451151;28;20231;-70
2023/01/07 05:50:45;;;;;;;9.70;4.70;;;10.50;99.90;;;;;;10473296;28;20241;-69
2023/01/07 05:55:46;;;;;;;2.10;1.90;;;10.40;99.90;;;;;;10467818;28;20257;-70
2023/01/07 06:00:47;;;;;;;4.17;2.20;;;10.40;99.90;;;;;;10480509;28;20228;-69
2023/01/07 06:05:47;;;;;;;2.13;1.87;;;10.40;99.90;;;;;;10456607;28;20227;-71
2023/01/07 06:10:48;;;;;;;1.60;1.50;;;10.40;99.90;;;;;;10467341;28;20285;-71
2023/01/07 06:15:49;;;;;;;2.80;1.80;;;10.40;99.90;;;;;;10466609;28;20924;-72
2023/01/07 06:20:50;;;;;;;2.83;2.00;;;10.40;99.90;;;;;;10466139;28;20220;-73
2023/01/07 06:25:50;;;;;;;3.90;2.33;;;10.40;99.90;;;;;;10474488;28;20235;-70
2023/01/07 06:30:51;;;;;;;2.83;2.07;;;10.40;99.90;;;;;;10465890;28;20223;-69
2023/01/07 06:35:51;;;;;;;3.13;1.83;;;10.40;99.90;;;;;;10481507;28;20629;-72
2023/01/07 06:40:52;;;;;;;2.27;2.03;;;10.40;99.90;;;;;;10473933;28;20245;-69
2023/01/07 06:45:53;;;;;;;2.10;1.43;;;10.40;99.90;;;;;;10447901;28;20238;-70
2023/01/07 06:50:53;;;;;;;3.13;1.80;;;10.50;99.90;;;;;;10479944;28;20295;-70
2023/01/07 06:55:54;;;;;;;2.40;1.80;;;10.40;99.90;;;;;;10473239;28;20251;-70
2023/01/07 07:00:54;;;;;;;1.73;1.60;;;10.40;99.90;;;;;;10473793;28;20226;-70
2023/01/07 07:05:55;;;;;;;1.20;1.10;;;10.40;99.90;;;;;;10481506;28;20230;-69
2023/01/07 07:10:55;;;;;;;2.13;0.90;;;10.50;99.90;;;;;;10497994;28;20564;-70
2023/01/07 07:15:56;;;;;;;3.07;1.60;;;10.50;99.90;;;;;;10499907;28;20223;-71
2023/01/07 07:20:58;;;;;;;1.10;0.90;;;10.40;99.90;;;;;;10509796;28;20230;-72
2023/01/07 07:25:59;;;;;;;0.97;0.97;;;10.40;99.90;;;;;;10509802;28;20233;-74
2023/01/07 07:30:59;;;;;;;1.50;1.20;;;10.40;99.90;;;;;;10520793;28;20354;-74
2023/01/07 07:36:00;;;;;;;1.70;1.10;;;10.40;99.90;;;;;;10496874;28;20248;-75
2023/01/07 07:41:01;;;;;;;3.27;1.33;;;10.40;99.90;;;;;;10487961;28;20345;-74
2023/01/07 07:46:02;;;;;;;1.27;1.07;;;10.40;99.90;;;;;;10461491;28;20223;-73
2023/01/07 07:51:02;;;;;;;3.67;1.30;;;10.40;99.90;;;;;;10472265;28;20649;-71
2023/01/07 07:56:06;;;;;;;1.57;1.00;;;10.40;99.90;;;;;;10479042;28;20329;-74
2023/01/07 08:01:07;;;;;;;0.90;0.90;;;10.50;99.90;;;;;;10472374;28;20251;-72
2023/01/07 08:06:10;;;;;;;1.00;0.80;;;10.40;99.90;;;;;;10468967;28;20294;-71
2023/01/07 08:11:13;;;;;;;0.60;0.60;;;10.50;99.90;;;;;;10476251;28;20257;-72
2023/01/07 08:16:14;;;;;;;1.60;0.80;;;10.50;99.90;;;;;;10468780;28;20261;-72
2023/01/07 08:21:14;;;;;;;1.10;0.90;;;10.50;99.90;;;;;;10452524;28;20245;-73
2023/01/07 08:26:15;;;;;;;0.90;0.70;;;10.60;99.90;;;;;;10458711;28;20616;-73
2023/01/07 08:31:16;;;;;;;0.83;0.67;;;10.60;99.90;;;;;;10466482;28;20279;-71
2023/01/07 08:36:16;;;;;;;1.07;0.70;;;10.60;99.90;;;;;;10474774;28;20309;-72
2023/01/07 08:41:18;;;;;;;0.80;0.80;;;10.70;99.90;;;;;;10486415;28;20230;-73
2023/01/07 08:46:22;;;;;;;1.10;0.90;;;10.80;99.90;;;;;;10470937;28;20305;-73
2023/01/07 08:51:23;;;;;;;2.13;0.60;;;10.80;99.90;;;;;;10469616;28;20223;-73
2023/01/07 08:56:23;;;;;;;0.80;0.70;;;10.80;99.90;;;;;;10471209;28;20630;-72
2023/01/07 09:01:24;;;;;;;0.73;0.73;;;10.90;99.90;;;;;;10471115;28;20229;-72
2023/01/07 09:06:24;;;;;;;0.93;0.70;;;10.90;99.90;;;;;;10480108;28;20652;-72
2023/01/07 09:11:25;;;;;;;2.07;0.80;;;10.80;99.90;;;;;;10448270;28;20227;-74
2023/01/07 09:16:25;;;;;;;0.70;0.63;;;10.90;99.90;;;;;;10470447;28;20230;-69
2023/01/07 09:21:26;;;;;;;1.30;0.80;;;10.90;99.90;;;;;;10468979;28;20249;-73
2023/01/07 09:26:27;;;;;;;3.00;0.63;;;10.90;99.90;;;;;;10470387;28;20258;-72
2023/01/07 09:31:27;;;;;;;1.37;0.70;;;11.00;99.90;;;;;;10452981;28;20226;-72
2023/01/07 09:36:29;;;;;;;1.07;0.70;;;11.10;99.90;;;;;;10467631;28;20325;-70
2023/01/07 09:41:54;;;;;;;0.90;0.90;;;11.10;99.90;;;;;;10476875;28;20596;-69
2023/01/07 09:46:56;;;;;;;1.00;0.70;;;11.20;99.90;;;;;;10450676;28;20244;-70
2023/01/07 09:52:21;;;;;;;0.77;0.77;;;11.30;99.90;;;;;;10446945;28;20219;-68
2023/01/07 09:57:22;;;;;;;1.03;1.00;;;11.50;99.90;;;;;;10478404;28;20226;-75
2023/01/07 10:02:39;;;;;;;1.63;1.03;;;11.60;99.90;;;;;;10445831;28;20713;-74
2023/01/07 10:07:59;;;;;;;1.53;1.17;;;11.80;99.90;;;;;;10473871;28;20253;-76
2023/01/07 10:13:16;;;;;;;1.43;1.20;;;12.00;99.90;;;;;;10453077;28;20222;-77
2023/01/07 10:18:22;;;;;;;1.93;0.80;;;12.10;99.90;;;;;;10483466;28;20772;-78
2023/01/07 10:23:27;;;;;;;1.87;1.00;;;12.20;99.90;;;;;;10469171;28;20317;-76
2023/01/07 10:28:44;;;;;;;0.90;0.70;;;12.10;99.90;;;;;;10480717;28;20229;-74
2023/01/07 10:33:47;;;;;;;0.50;0.50;;;12.30;99.90;;;;;;10477268;28;20225;-74
2023/01/07 10:39:11;;;;;;;0.70;0.60;;;12.50;99.90;;;;;;10470064;28;20226;-74
2023/01/07 10:44:45;;;;;;;1.27;0.90;;;12.60;99.90;;;;;;10455504;28;20222;-76
2023/01/07 10:50:05;;;;;;;1.23;0.57;;;12.80;99.90;;;;;;10466595;28;20253;-75
2023/01/07 10:55:21;;;;;;;0.50;0.50;;;12.80;99.90;;;;;;10473193;28;20222;-77
2023/01/07 11:00:23;;;;;;;1.50;1.00;;;12.70;99.90;;;;;;10461341;28;20177;-76
2023/01/07 11:05:34;;;;;;;1.10;0.73;;;12.80;99.90;;;;;;10462908;28;20222;-72
2023/01/07 11:10:36;;;;;;;0.70;0.60;;;12.70;99.90;;;;;;10484634;28;20225;-77
2023/01/07 11:16:06;;;;;;;1.37;0.60;;;12.80;99.90;;;;;;10475169;28;20221;-74
2023/01/07 11:21:07;;;;;;;2.73;0.50;;;12.70;99.90;;;;;;10482633;28;20283;-75
2023/01/07 11:26:23;;;;;;;0.50;0.50;;;12.60;99.90;;;;;;10459392;28;20238;-75
2023/01/07 11:31:43;;;;;;;0.40;0.40;;;12.50;99.90;;;;;;10476876;28;20243;-75
2023/01/07 11:36:43;;;;;;;0.50;0.50;;;12.40;99.90;;;;;;10471296;28;20357;-74
2023/01/07 11:41:51;;;;;;;0.50;0.43;;;12.20;99.90;;;;;;10452428;28;20311;-74
2023/01/07 11:46:53;;;;;;;0.80;0.50;;;12.20;99.90;;;;;;10485437;28;20229;-75
2023/01/07 11:51:55;;;;;;;0.50;0.50;;;12.20;99.90;;;;;;10485384;28;20225;-76
2023/01/07 11:57:19;;;;;;;0.43;0.43;;;12.30;99.90;;;;;;10478797;28;20231;-78
2023/01/07 12:02:26;;;;;;;0.70;0.70;;;12.30;99.90;;;;;;10487507;28;20223;-75
2023/01/07 12:07:27;;;;;;;0.70;0.70;;;12.20;99.90;;;;;;10477759;28;20272;-75
2023/01/07 12:12:35;;;;;;;1.00;0.83;;;12.10;99.90;;;;;;10462254;28;20569;-73
2023/01/07 12:17:38;;;;;;;1.50;0.97;;;12.00;99.90;;;;;;10472879;28;20222;-72
2023/01/07 12:23:16;;;;;;;1.57;1.20;;;12.00;99.90;;;;;;10457501;28;20233;-72
2023/01/07 12:28:22;;;;;;;1.03;0.93;;;11.90;99.90;;;;;;10472510;28;20916;-72
2023/01/07 12:33:47;;;;;;;1.90;1.00;;;11.90;99.90;;;;;;10470306;28;20223;-71
2023/01/07 12:38:54;;;;;;;1.30;1.20;;;11.80;99.90;;;;;;10452864;28;20298;-75
2023/01/07 12:44:17;;;;;;;2.03;1.33;;;11.80;99.90;;;;;;10455997;28;20250;-74
2023/01/07 12:49:27;;;;;;;1.83;1.60;;;11.80;99.90;;;;;;10459294;28;20226;-69
2023/01/07 12:55:14;;;;;;;1.87;1.37;;;11.80;99.90;;;;;;10464996;28;20270;-71
2023/01/07 13:00:24;;;;;;;1.60;1.33;;;11.80;99.90;;;;;;10461236;28;20586;-72
2023/01/07 13:05:53;;;;;;;2.13;1.17;;;11.80;99.90;;;;;;10452715;28;20242;-72
2023/01/07 13:11:07;;;;;;;1.43;1.33;;;11.80;99.90;;;;;;10470633;28;20226;-70
2023/01/07 13:16:11;;;;;;;1.30;1.20;;;11.80;99.90;;;;;;10487235;28;20257;-72
2023/01/07 13:21:14;;;;;;;1.53;1.10;;;11.90;99.90;;;;;;10478319;28;20246;-70
2023/01/07 13:26:24;;;;;;;1.20;1.10;;;11.90;99.90;;;;;;10462842;28;20227;-70
2023/01/07 13:31:53;;;;;;;1.23;1.13;;;11.90;99.90;;;;;;10474415;28;20710;-67
2023/01/07 13:37:12;;;;;;;1.27;0.97;;;12.00;99.90;;;;;;10471986;28;20233;-69
2023/01/07 13:42:48;;;;;;;0.87;0.87;;;12.00;99.90;;;;;;10481850;28;20329;-70
2023/01/07 13:47:56;;;;;;;2.90;0.97;;;12.00;99.90;;;;;;10480918;28;20356;-73
2023/01/07 13:52:59;;;;;;;1.27;1.17;;;12.00;99.90;;;;;;10461072;28;20236;-71
2023/01/07 13:58:01;;;;;;;1.43;1.20;;;12.00;99.90;;;;;;10460767;28;20252;-67
2023/01/07 14:03:02;;;;;;;1.67;1.00;;;11.90;99.90;;;;;;10455852;28;20242;-70
2023/01/07 14:08:03;;;;;;;1.87;0.90;;;11.80;99.90;;;;;;10472049;28;20226;-70
2023/01/07 14:13:22;;;;;;;1.10;1.10;;;11.80;99.90;;;;;;10465018;28;20323;-69
2023/01/07 14:18:50;;;;;;;2.47;1.30;;;11.80;99.90;;;;;;10470006;28;20246;-70
2023/01/07 14:24:03;;;;;;;2.43;1.10;;;11.80;99.90;;;;;;10470501;28;20226;-71
2023/01/07 14:29:47;;;;;;;1.23;1.10;;;11.70;99.90;;;;;;10453999;28;20621;-70
2023/01/07 14:35:00;;;;;;;1.60;1.20;;;11.70;99.90;;;;;;10448306;28;20316;-71
2023/01/07 14:40:25;;;;;;;3.70;1.50;;;11.80;99.90;;;;;;10473337;28;20247;-71
2023/01/07 14:45:35;;;;;;;1.30;1.20;;;11.80;99.90;;;;;;10477356;28;20238;-69
2023/01/07 14:50:50;;;;;;;2.13;1.30;;;11.70;99.90;;;;;;10470684;28;20216;-72
2023/01/07 14:56:29;;;;;;;1.93;1.10;;;11.60;99.90;;;;;;10472776;28;20237;-70
2023/01/07 15:01:47;;;;;;;2.57;1.60;;;11.50;99.90;;;;;;10376711;28;20215;-70
2023/01/07 15:06:50;;;;;;;1.90;1.60;;;11.40;99.90;;;;;;10474082;28;20727;-70
2023/01/07 15:17:14;;;;;;;1.20;1.10;;;11.10;99.90;;;;;;10471857;28;20230;-69
2023/01/07 15:22:33;;;;;;;1.50;1.40;;;11.00;99.90;;;;;;10474598;28;20293;-69
2023/01/07 15:28:12;;;;;;;3.70;1.70;;;10.90;99.90;;;;;;10476234;28;20222;-69
2023/01/07 15:33:28;;;;;;;2.40;1.33;;;10.70;99.90;;;;;;10448943;28;20219;-68
2023/01/07 15:38:43;;;;;;;2.53;1.77;;;10.60;99.90;;;;;;10474420;28;20225;-69
2023/01/07 15:43:44;;;;;;;2.77;2.40;;;10.40;99.90;;;;;;10479486;28;20230;-70
2023/01/07 15:48:44;;;;;;;4.87;2.53;;;10.40;99.90;;;;;;10483313;28;20224;-70
2023/01/07 15:53:54;;;;;;;3.77;2.37;;;10.20;99.90;;;;;;10481353;28;20285;-69
2023/01/07 15:58:55;;;;;;;3.53;3.07;;;10.00;99.90;;;;;;10461760;28;20229;-72
2023/01/07 16:03:56;;;;;;;7.37;5.03;;;9.90;99.90;;;;;;10476642;28;20537;-68
2023/01/07 16:08:58;;;;;;;5.07;4.00;;;9.80;99.90;;;;;;10464521;28;20213;-70
2023/01/07 16:14:02;;;;;;;4.87;3.50;;;9.70;99.90;;;;;;10468929;28;20219;-69
2023/01/07 16:19:02;;;;;;;3.43;3.00;;;9.50;99.90;;;;;;10443866;28;20227;-69
2023/01/07 16:24:04;;;;;;;2.90;1.90;;;9.40;99.90;;;;;;10485979;28;20721;-67
2023/01/07 16:29:15;;;;;;;3.70;2.93;;;9.40;99.90;;;;;;10481518;28;20295;-69
2023/01/07 16:34:25;;;;;;;4.00;3.10;;;9.50;99.90;;;;;;10479418;28;20322;-68
2023/01/07 16:39:33;;;;;;;4.57;2.43;;;9.50;99.90;;;;;;10476933;28;20222;-69
2023/01/07 16:44:43;;;;;;;3.07;2.10;;;9.50;99.90;;;;;;10448970;28;20711;-71
2023/01/07 16:49:44;;;;;;;4.47;3.30;;;9.50;99.90;;;;;;10460900;28;20222;-70
2023/01/07 16:54:55;;;;;;;4.10;3.07;;;9.50;99.90;;;;;;10470609;28;20230;-73
2023/01/07 17:00:00;;;;;;;5.20;3.07;;;9.40;99.90;;;;;;10466716;28;20228;-72
2023/01/07 17:05:19;;;;;;;4.63;3.23;;;9.40;99.90;;;;;;10449059;28;20306;-72
2023/01/07 17:10:26;;;;;;;5.10;3.40;;;9.30;99.90;;;;;;10448431;28;20382;-72
2023/01/07 17:15:34;;;;;;;3.53;3.10;;;9.20;99.90;;;;;;10476348;28;20220;-72
2023/01/07 17:20:45;;;;;;;3.13;2.77;;;9.20;99.90;;;;;;10480292;28;20275;-71
2023/01/07 17:25:47;;;;;;;3.50;3.03;;;9.20;99.90;;;;;;10471005;28;20223;-72
2023/01/07 17:30:48;;;;;;;3.70;3.03;;;9.20;99.90;;;;;;10482912;28;20565;-72
2023/01/07 17:35:49;;;;;;;3.77;2.67;;;9.30;99.90;;;;;;10459160;28;20218;-72
2023/01/07 17:40:51;;;;;;;3.70;3.00;;;9.30;99.90;;;;;;10469046;28;20226;-72
2023/01/07 17:45:51;;;;;;;4.13;2.50;;;9.40;99.90;;;;;;10475107;28;20234;-71
2023/01/07 17:50:55;;;;;;;4.40;2.83;;;9.50;99.90;;;;;;10469097;28;20226;-71
2023/01/07 17:55:56;;;;;;;6.60;4.30;;;9.50;99.90;;;;;;10476060;28;20598;-72
2023/01/07 18:00:59;;;;;;;4.30;3.23;;;9.50;99.90;;;;;;10458044;28;20221;-71
2023/01/07 18:06:00;;;;;;;3.87;3.37;;;9.40;99.90;;;;;;10468286;28;20231;-72
2023/01/07 18:16:20;;;;;;;5.37;3.70;;;9.30;99.90;;;;;;10463701;28;20401;-73
2023/01/07 18:21:20;;;;;;;4.83;3.67;;;9.20;99.90;;;;;;10442214;28;20600;-73
2023/01/07 18:26:21;;;;;;;6.60;4.60;;;9.20;99.90;;;;;;10471198;28;20247;-72
2023/01/07 18:31:22;;;;;;;4.03;3.60;;;9.10;99.90;;;;;;10469224;28;20292;-71
2023/01/07 18:36:22;;;;;;;7.77;3.77;;;9.10;99.90;;;;;;10450262;28;20219;-73
2023/01/07 18:41:23;;;;;;;5.37;3.70;;;9.30;99.90;;;;;;10469656;28;20226;-73
2023/01/07 18:46:24;;;;;;;4.53;3.40;;;9.30;99.90;;;;;;10476511;28;20237;-72
2023/01/07 18:51:24;;;;;;;4.13;3.17;;;9.30;99.90;;;;;;10478651;28;20308;-73
2023/01/07 18:56:25;;;;;;;7.27;5.17;;;9.30;99.90;;;;;;10468392;28;20256;-73
2023/01/07 19:01:26;;;;;;;4.13;3.53;;;9.30;99.90;;;;;;10459328;28;20233;-74
2023/01/07 19:06:26;;;;;;;5.07;4.20;;;9.30;99.90;;;;;;10477034;28;20231;-72
2023/01/07 19:11:27;;;;;;;3.97;3.40;;;9.40;99.90;;;;;;10472478;28;20250;-72
2023/01/07 19:16:27;;;;;;;6.17;4.00;;;9.40;99.90;;;;;;10480471;28;20361;-70
2023/01/07 19:21:28;;;;;;;6.23;4.30;;;9.40;99.90;;;;;;10470761;28;20685;-71
2023/01/07 19:26:29;;;;;;;6.70;4.40;;;9.50;99.90;;;;;;10457742;28;20234;-72
2023/01/07 19:31:30;;;;;;;5.17;3.53;;;9.50;99.90;;;;;;10479599;28;20470;-72
2023/01/07 19:36:31;;;;;;;4.33;3.33;;;9.60;99.90;;;;;;10476143;28;20230;-72
2023/01/07 19:41:32;;;;;;;3.97;3.33;;;9.60;99.90;;;;;;10466113;28;20236;-71
2023/01/07 19:46:35;;;;;;;4.33;3.43;;;9.70;99.90;;;;;;10471436;28;20699;-71
2023/01/07 19:51:38;;;;;;;4.27;3.20;;;9.80;99.90;;;;;;10476764;28;20234;-72
2023/01/07 19:56:39;;;;;;;4.10;3.17;;;9.90;99.90;;;;;;10455881;28;20318;-71
2023/01/07 20:01:40;;;;;;;4.73;3.40;;;9.90;99.90;;;;;;10458797;28;20219;-72
2023/01/07 20:06:41;;;;;;;3.37;2.67;;;10.00;99.90;;;;;;10472322;28;20321;-72
2023/01/07 20:11:42;;;;;;;5.80;2.90;;;10.20;99.90;;;;;;10475492;28;20763;-70
2023/01/07 20:16:42;;;;;;;3.10;2.80;;;10.30;99.90;;;;;;10467204;28;20223;-72
2023/01/07 20:21:46;;;;;;;3.50;2.70;;;10.40;99.90;;;;;;10460164;28;20231;-72
2023/01/07 20:26:47;;;;;;;3.37;2.50;;;10.40;99.90;;;;;;10459675;28;20230;-71
2023/01/07 20:31:47;;;;;;;4.33;2.77;;;10.50;99.90;;;;;;10475322;28;20255;-73
2023/01/07 20:36:48;;;;;;;3.03;2.77;;;10.60;99.90;;;;;;10458702;28;20229;-72
2023/01/07 20:41:48;;;;;;;3.73;2.80;;;10.60;99.90;;;;;;10476504;28;20291;-72
2023/01/07 20:46:49;;;;;;;2.90;2.70;;;10.60;99.90;;;;;;10469678;28;20230;-72
2023/01/07 20:51:50;;;;;;;5.13;3.00;;;10.50;99.90;;;;;;10457761;28;20353;-72
2023/01/07 20:56:50;;;;;;;3.00;2.53;;;10.50;99.90;;;;;;10451857;28;20239;-73
2023/01/07 21:01:51;;;;;;;4.73;3.33;;;10.50;99.90;;;;;;10475140;28;20226;-73
2023/01/07 21:06:52;;;;;;;4.33;3.00;;;10.60;99.90;;;;;;10458766;28;20333;-72
2023/01/07 21:11:52;;;;;;;3.43;3.13;;;10.70;99.90;;;;;;10467298;28;20252;-73
2023/01/07 21:16:53;;;;;;;3.50;3.20;;;10.80;99.90;;;;;;10477059;28;20277;-72
2023/01/07 21:21:53;;;;;;;3.33;3.00;;;10.80;99.90;;;;;;10467516;28;20234;-73
2023/01/07 21:26:54;;;;;;;6.30;3.50;;;10.70;99.90;;;;;;10470244;28;20227;-72
2023/01/07 21:31:56;;;;;;;4.13;3.53;;;10.80;99.90;;;;;;10478628;28;20246;-73
2023/01/07 21:36:56;;;;;;;3.87;3.47;;;10.70;99.90;;;;;;10476092;28;20252;-73
2023/01/07 21:41:57;;;;;;;4.27;3.33;;;10.60;99.90;;;;;;10475924;28;20301;-72
2023/01/07 21:46:57;;;;;;;4.33;3.47;;;10.50;99.90;;;;;;10448778;28;20281;-72
2023/01/07 21:51:58;;;;;;;3.70;3.30;;;10.50;99.90;;;;;;10455649;28;20241;-72
2023/01/07 21:56:59;;;;;;;4.83;3.43;;;10.50;99.90;;;;;;10439480;28;20899;-73
2023/01/07 22:01:59;;;;;;;4.63;3.60;;;10.60;99.90;;;;;;10470970;28;20222;-73
2023/01/07 22:07:00;;;;;;;5.77;4.07;;;10.60;99.90;;;;;;10447070;28;20227;-72
2023/01/07 22:12:01;;;;;;;4.07;3.60;;;10.60;99.90;;;;;;10472720;28;20226;-72
2023/01/07 22:17:01;;;;;;;5.73;3.90;;;10.50;99.90;;;;;;10447068;28;20237;-72
2023/01/07 22:22:02;;;;;;;5.07;3.90;;;10.50;99.90;;;;;;10468820;28;20662;-73
2023/01/07 22:27:03;;;;;;;5.67;3.63;;;10.50;99.90;;;;;;10451793;28;20292;-71
2023/01/07 22:32:04;;;;;;;5.43;3.90;;;10.60;99.90;;;;;;10478182;28;20275;-71
2023/01/07 22:37:16;;;;;;;4.10;3.60;;;10.60;99.90;;;;;;10461718;28;20260;-71
2023/01/07 22:42:21;;;;;;;7.03;4.00;;;10.60;99.90;;;;;;10471920;28;20317;-72
2023/01/07 22:47:33;;;;;;;4.70;3.80;;;10.70;99.90;;;;;;10460441;28;20233;-73
2023/01/07 22:52:35;;;;;;;8.23;4.13;;;10.70;99.90;;;;;;10464135;28;20637;-72
2023/01/07 22:57:36;;;;;;;5.17;4.00;;;10.70;99.90;;;;;;10433467;28;1118307;-71
2023/01/07 23:02:37;;;;;;;6.73;4.53;;;10.70;99.90;;;;;;10468665;28;20229;-71
2023/01/07 23:07:37;;;;;;;6.80;4.30;;;10.70;99.90;;;;;;10468859;28;20763;-69
2023/01/07 23:12:38;;;;;;;5.13;4.17;;;10.50;99.90;;;;;;10466607;28;20310;-69
2023/01/07 23:17:40;;;;;;;9.90;4.80;;;10.40;99.90;;;;;;10451130;28;20765;-69
2023/01/07 23:22:44;;;;;;;5.97;4.70;;;10.30;99.90;;;;;;10461171;28;20237;-69
2023/01/07 23:27:44;;;;;;;6.70;4.53;;;10.20;99.90;;;;;;10472254;28;20699;-70
2023/01/07 23:32:45;;;;;;;7.40;4.67;;;10.00;99.90;;;;;;10475933;28;20381;-73
2023/01/07 23:37:45;;;;;;;5.83;4.07;;;9.90;99.90;;;;;;10472821;28;20759;-73
2023/01/07 23:42:48;;;;;;;5.30;4.20;;;9.90;99.90;;;;;;10472794;28;20223;-73
2023/01/07 23:47:48;;;;;;;4.80;4.00;;;9.90;99.90;;;;;;10476217;28;20263;-73
2023/01/07 23:52:49;;;;;;;7.33;4.70;;;10.00;99.90;;;;;;10472832;28;20715;-73
2023/01/07 23:57:49;;;;;;;4.03;3.60;;;10.00;99.90;;;;;;10476420;28;20874;-70
